createdAt,value
2022-08-10T00:00:59.610Z,12.71
2022-08-10T00:03:29.328Z,12.66
2022-08-10T00:06:00.458Z,12.62
2022-08-10T00:08:29.981Z,12.59
2022-08-10T00:10:59.912Z,12.54
2022-08-10T00:13:31.554Z,12.48
2022-08-10T00:16:01.231Z,12.45
2022-08-10T00:18:35.197Z,12.42
2022-08-10T00:21:10.040Z,12.39
2022-08-10T00:23:40.392Z,12.37
2022-08-10T00:26:10.004Z,12.35
2022-08-10T00:28:39.974Z,12.34
2022-08-10T00:31:09.448Z,12.33
2022-08-10T00:33:38.929Z,12.30
2022-08-10T00:36:10.416Z,12.28
2022-08-10T00:38:39.910Z,12.26
2022-08-10T00:41:10.525Z,12.25
2022-08-10T00:43:40.033Z,12.23
2022-08-10T00:46:09.540Z,12.22
2022-08-10T00:48:39.085Z,12.19
2022-08-10T00:51:10.243Z,12.15
2022-08-10T00:53:39.864Z,12.13
2022-08-10T00:57:09.993Z,12.12
2022-08-10T00:58:59.656Z,12.08
2022-08-10T01:02:08.793Z,12.06
2022-08-10T01:04:36.426Z,12.03
2022-08-10T01:07:30.241Z,11.99
2022-08-10T01:10:17.134Z,11.93
2022-08-10T01:12:56.141Z,11.88
2022-08-10T01:15:33.628Z,11.83
2022-08-10T01:18:11.183Z,11.81
2022-08-10T01:21:17.057Z,11.80
2022-08-10T01:24:15.232Z,11.77
2022-08-10T01:27:27.833Z,11.70
2022-08-10T01:30:05.623Z,11.68
2022-08-10T01:32:49.718Z,11.65
2022-08-10T01:35:30.244Z,11.64
2022-08-10T01:38:08.334Z,11.62
2022-08-10T01:40:47.928Z,11.61
2022-08-10T01:43:21.251Z,11.59
2022-08-10T01:45:58.985Z,11.56
2022-08-10T01:48:32.895Z,11.50
2022-08-10T01:51:13.692Z,11.47
2022-08-10T01:53:52.042Z,11.45
2022-08-10T01:56:25.841Z,11.42
2022-08-10T01:59:04.871Z,11.38
2022-08-10T02:01:43.969Z,11.35
2022-08-10T02:04:17.273Z,11.34
2022-08-10T02:06:52.667Z,11.32
2022-08-10T02:09:28.313Z,11.30
2022-08-10T02:12:08.559Z,11.27
2022-08-10T02:14:49.259Z,11.26
2022-08-10T02:17:59.748Z,11.25
2022-08-10T02:20:22.435Z,11.23
2022-08-10T02:22:57.889Z,11.19
2022-08-10T02:25:41.475Z,11.16
2022-08-10T02:28:29.396Z,11.14
2022-08-10T02:31:06.591Z,11.12
2022-08-10T02:33:56.651Z,11.08
2022-08-10T02:36:32.748Z,11.05
2022-08-10T02:39:07.008Z,11.02
2022-08-10T02:45:01.596Z,10.99
2022-08-10T02:45:23.854Z,10.95
2022-08-10T02:47:55.421Z,10.90
2022-08-10T02:50:30.812Z,10.88
2022-08-10T02:53:07.189Z,10.85
2022-08-10T02:55:46.580Z,10.85
2022-08-10T02:58:27.493Z,10.79
2022-08-10T03:01:01.396Z,10.76
2022-08-10T03:03:46.805Z,10.75
2022-08-10T03:06:27.729Z,10.71
2022-08-10T03:08:58.393Z,10.69
2022-08-10T03:12:34.926Z,10.67
2022-08-10T03:14:24.942Z,10.65
2022-08-10T03:16:57.646Z,10.60
2022-08-10T03:20:34.706Z,10.58
2022-08-10T03:22:20.994Z,10.51
2022-08-10T03:24:51.459Z,10.46
2022-08-10T03:27:21.649Z,10.45
2022-08-10T03:30:31.706Z,10.44
2022-08-10T03:32:44.110Z,10.41
2022-08-10T03:35:14.761Z,10.40
2022-08-10T03:37:45.697Z,10.37
2022-08-10T03:40:15.585Z,10.36
2022-08-10T03:42:48.286Z,10.34
2022-08-10T03:45:18.471Z,10.33
2022-08-10T03:47:50.144Z,10.33
2022-08-10T03:50:27.626Z,10.32
2022-08-10T03:53:25.186Z,10.30
2022-08-10T03:56:29.590Z,10.27
2022-08-10T03:58:52.661Z,10.25
2022-08-10T04:02:41.816Z,10.21
2022-08-10T04:04:16.543Z,10.20
2022-08-10T04:06:54.518Z,10.19
2022-08-10T04:09:56.150Z,10.17
2022-08-10T04:12:19.916Z,10.18
2022-08-10T04:14:52.485Z,10.20
2022-08-10T04:18:03.106Z,10.21
2022-08-10T04:20:21.412Z,10.25
2022-08-10T04:22:54.710Z,10.27
2022-08-10T04:25:27.618Z,10.33
2022-08-10T04:27:57.831Z,10.39
2022-08-10T04:30:29.389Z,10.43
2022-08-10T04:33:06.875Z,10.52
2022-08-10T04:35:36.796Z,10.59
2022-08-10T04:38:07.008Z,10.67
2022-08-10T04:40:38.922Z,10.75
2022-08-10T04:43:13.299Z,10.83
2022-08-10T04:45:49.283Z,10.97
2022-08-10T04:48:43.039Z,11.09
2022-08-10T04:51:18.930Z,11.23
2022-08-10T04:54:03.203Z,11.37
2022-08-10T04:56:40.225Z,11.49
2022-08-10T04:59:12.472Z,11.61
2022-08-10T05:02:29.067Z,11.69
2022-08-10T05:04:37.449Z,11.79
2022-08-10T05:07:10.933Z,11.89
2022-08-10T05:10:00.374Z,11.96
2022-08-10T05:12:35.612Z,12.02
2022-08-10T05:15:09.490Z,12.11
2022-08-10T05:17:43.530Z,12.17
2022-08-10T05:20:31.881Z,12.26
2022-08-10T05:23:01.375Z,12.33
2022-08-10T05:25:32.851Z,12.41
2022-08-10T05:28:08.412Z,12.51
2022-08-10T05:30:38.085Z,12.62
2022-08-10T05:33:08.989Z,12.71
2022-08-10T05:35:52.872Z,12.81
2022-08-10T05:38:29.395Z,12.95
2022-08-10T05:40:59.775Z,13.04
2022-08-10T05:43:30.747Z,13.14
2022-08-10T05:46:18.958Z,13.27
2022-08-10T05:48:59.729Z,13.36
2022-08-10T05:51:31.451Z,13.47
2022-08-10T05:54:06.149Z,13.57
2022-08-10T05:56:54.698Z,13.67
2022-08-10T06:00:29.592Z,13.77
2022-08-10T06:02:36.404Z,13.89
2022-08-10T06:05:10.262Z,13.99
2022-08-10T06:07:46.872Z,14.10
2022-08-10T06:10:28.541Z,14.22
2022-08-10T06:13:29.745Z,14.35
2022-08-10T06:16:09.424Z,14.49
2022-08-10T06:18:40.118Z,14.61
2022-08-10T06:21:10.536Z,14.72
2022-08-10T06:23:41.331Z,14.85
2022-08-10T06:26:14.895Z,14.95
2022-08-10T06:29:03.791Z,15.08
2022-08-10T06:31:48.434Z,15.21
2022-08-10T06:34:28.377Z,15.33
2022-08-10T06:37:03.982Z,15.44
2022-08-10T06:39:35.573Z,15.58
2022-08-10T06:42:18.475Z,15.71
2022-08-10T06:44:59.551Z,15.84
2022-08-10T06:47:40.765Z,15.97
2022-08-10T06:50:35.137Z,16.11
2022-08-10T06:53:13.469Z,16.24
2022-08-10T06:55:56.820Z,16.39
2022-08-10T06:58:35.277Z,16.55
2022-08-10T07:01:10.427Z,16.69
2022-08-10T07:03:48.204Z,16.83
2022-08-10T07:06:20.114Z,16.95
2022-08-10T07:08:52.344Z,17.09
2022-08-10T07:11:23.612Z,17.21
2022-08-10T07:14:14.437Z,17.34
2022-08-10T07:16:48.844Z,17.51
2022-08-10T07:19:22.512Z,17.67
2022-08-10T07:21:52.835Z,17.84
2022-08-10T07:24:28.603Z,18.00
2022-08-10T07:26:59.683Z,18.15
2022-08-10T07:29:53.821Z,18.33
2022-08-10T07:32:23.594Z,18.50
2022-08-10T07:34:57.388Z,18.66
2022-08-10T07:37:29.812Z,18.80
2022-08-10T07:40:03.411Z,18.93
2022-08-10T07:42:39.829Z,19.09
2022-08-10T07:45:13.200Z,19.25
2022-08-10T07:47:54.354Z,19.42
2022-08-10T07:50:28.433Z,19.54
2022-08-10T07:53:09.807Z,19.74
2022-08-10T07:56:04.215Z,19.90
2022-08-10T07:58:46.127Z,20.06
2022-08-10T08:01:18.974Z,20.24
2022-08-10T08:04:05.741Z,20.39
2022-08-10T08:06:43.167Z,20.55
2022-08-10T08:09:12.992Z,20.72
2022-08-10T08:11:45.308Z,20.83
2022-08-10T08:14:17.103Z,20.97
2022-08-10T08:16:51.815Z,21.12
2022-08-10T08:19:35.963Z,21.24
2022-08-10T08:24:30.564Z,21.38
2022-08-10T08:25:01.483Z,21.51
2022-08-10T08:27:32.594Z,21.58
2022-08-10T08:30:03.146Z,21.68
2022-08-10T08:32:37.825Z,21.77
2022-08-10T08:35:12.145Z,21.87
2022-08-10T08:38:30.178Z,22.06
2022-08-10T08:40:37.837Z,22.31
2022-08-10T08:43:50.553Z,22.48
2022-08-10T08:47:04.837Z,22.54
2022-08-10T08:50:33.839Z,22.73
2022-08-10T08:54:01.026Z,22.83
2022-08-10T08:56:29.852Z,23.00
2022-08-10T08:59:31.551Z,23.15
2022-08-10T09:02:19.120Z,23.23
2022-08-10T09:05:18.141Z,23.38
2022-08-10T09:08:31.488Z,23.56
2022-08-10T09:11:05.773Z,23.75
2022-08-10T09:13:45.690Z,23.85
2022-08-10T09:16:31.269Z,23.97
2022-08-10T09:19:19.629Z,24.02
2022-08-10T09:22:17.991Z,24.15
2022-08-10T09:25:15.861Z,24.25
2022-08-10T09:27:49.240Z,24.34
2022-08-10T09:30:34.763Z,24.43
2022-08-10T09:36:20.169Z,24.52
2022-08-10T09:36:33.109Z,24.66
2022-08-10T09:40:56.531Z,24.84
2022-08-10T09:42:40.254Z,25.03
2022-08-10T09:45:21.728Z,25.11
2022-08-10T09:48:16.617Z,25.16
2022-08-10T09:54:07.732Z,25.49
2022-08-10T09:57:03.002Z,25.56
2022-08-10T10:00:09.092Z,25.66
2022-08-10T10:03:02.765Z,25.64
2022-08-10T10:05:50.257Z,25.75
2022-08-10T10:08:33.790Z,25.74
2022-08-10T10:11:16.235Z,25.92
2022-08-10T10:14:04.395Z,26.04
2022-08-10T10:16:54.346Z,26.21
2022-08-10T10:19:50.257Z,26.35
2022-08-10T10:22:43.700Z,26.52
2022-08-10T10:25:50.118Z,26.76
2022-08-10T10:29:09.838Z,26.95
2022-08-10T10:31:33.130Z,27.07
2022-08-10T10:34:24.992Z,27.18
2022-08-10T10:36:56.237Z,27.27
2022-08-10T10:39:28.383Z,27.27
2022-08-10T10:42:35.065Z,27.29
2022-08-10T10:45:19.760Z,27.23
2022-08-10T10:48:17.863Z,27.36
2022-08-10T10:51:12.972Z,27.39
2022-08-10T10:53:55.008Z,27.48
2022-08-10T10:56:37.545Z,27.60
2022-08-10T10:59:53.674Z,27.73
2022-08-10T11:02:22.737Z,27.82
2022-08-10T11:05:09.930Z,27.84
2022-08-10T11:07:53.496Z,27.87
2022-08-10T11:10:34.761Z,27.93
2022-08-10T11:14:24.651Z,28.13
2022-08-10T11:16:29.130Z,28.32
2022-08-10T11:19:14.132Z,28.41
2022-08-10T11:22:02.245Z,28.57
2022-08-10T11:24:50.407Z,28.63
2022-08-10T11:27:34.718Z,28.77
2022-08-10T11:30:10.584Z,28.92
2022-08-10T11:32:58.418Z,28.83
2022-08-10T11:35:44.156Z,28.90
2022-08-10T11:38:31.330Z,28.99
2022-08-10T11:42:10.070Z,28.95
2022-08-10T11:44:17.404Z,28.94
